sensor_id;sensor_type;location;lat;lon;timestamp;temperature;humidity
58153;DHT22;43967;51.634;5.566;2023-05-16T00:04:22;21.20;59.70
58153;DHT22;43967;51.634;5.566;2023-05-16T00:09:44;21.10;59.60
58153;DHT22;43967;51.634;5.566;2023-05-16T00:15:06;21.10;59.60
58153;DHT22;43967;51.634;5.566;2023-05-16T00:20:28;21.10;59.50
58153;DHT22;43967;51.634;5.566;2023-05-16T00:25:49;21.10;59.50
58153;DHT22;43967;51.634;5.566;2023-05-16T00:31:11;21.10;59.50
58153;DHT22;43967;51.634;5.566;2023-05-16T00:36:32;21.10;59.90
58153;DHT22;43967;51.634;5.566;2023-05-16T00:41:54;21.10;59.50
58153;DHT22;43967;51.634;5.566;2023-05-16T00:47:15;21.10;59.40
58153;DHT22;43967;51.634;5.566;2023-05-16T00:52:36;21.00;59.40
58153;DHT22;43967;51.634;5.566;2023-05-16T00:57:58;21.00;59.40
58153;DHT22;43967;51.634;5.566;2023-05-16T01:03:21;21.10;59.40
58153;DHT22;43967;51.634;5.566;2023-05-16T01:08:42;21.00;59.30
58153;DHT22;43967;51.634;5.566;2023-05-16T01:19:47;21.00;59.20
58153;DHT22;43967;51.634;5.566;2023-05-16T01:25:30;21.00;59.20
58153;DHT22;43967;51.634;5.566;2023-05-16T01:30:52;21.00;59.20
58153;DHT22;43967;51.634;5.566;2023-05-16T01:36:24;21.00;59.10
58153;DHT22;43967;51.634;5.566;2023-05-16T01:47:14;21.00;59.00
58153;DHT22;43967;51.634;5.566;2023-05-16T01:58:04;20.90;58.90
58153;DHT22;43967;51.634;5.566;2023-05-16T02:03:26;20.90;58.90
58153;DHT22;43967;51.634;5.566;2023-05-16T02:08:48;20.90;58.80
58153;DHT22;43967;51.634;5.566;2023-05-16T02:14:09;20.90;58.80
58153;DHT22;43967;51.634;5.566;2023-05-16T02:19:31;20.90;58.80
58153;DHT22;43967;51.634;5.566;2023-05-16T02:24:52;20.90;59.50
58153;DHT22;43967;51.634;5.566;2023-05-16T02:30:14;20.80;58.80
58153;DHT22;43967;51.634;5.566;2023-05-16T02:35:35;20.80;58.70
58153;DHT22;43967;51.634;5.566;2023-05-16T02:40:56;20.80;58.60
58153;DHT22;43967;51.634;5.566;2023-05-16T02:51:43;20.80;58.60
58153;DHT22;43967;51.634;5.566;2023-05-16T02:57:04;20.80;58.50
58153;DHT22;43967;51.634;5.566;2023-05-16T03:02:25;20.80;58.50
58153;DHT22;43967;51.634;5.566;2023-05-16T03:07:46;20.80;58.50
58153;DHT22;43967;51.634;5.566;2023-05-16T03:13:08;20.80;58.50
58153;DHT22;43967;51.634;5.566;2023-05-16T03:18:29;20.80;58.50
58153;DHT22;43967;51.634;5.566;2023-05-16T03:23:53;20.70;58.50
58153;DHT22;43967;51.634;5.566;2023-05-16T03:29:14;20.70;58.40
58153;DHT22;43967;51.634;5.566;2023-05-16T03:34:36;20.70;58.40
58153;DHT22;43967;51.634;5.566;2023-05-16T03:39:57;20.70;58.30
58153;DHT22;43967;51.634;5.566;2023-05-16T03:45:18;20.70;58.30
58153;DHT22;43967;51.634;5.566;2023-05-16T03:50:39;20.70;58.30
58153;DHT22;43967;51.634;5.566;2023-05-16T03:56:01;20.70;58.30
58153;DHT22;43967;51.634;5.566;2023-05-16T04:01:22;20.60;58.20
58153;DHT22;43967;51.634;5.566;2023-05-16T04:06:43;20.60;58.30
58153;DHT22;43967;51.634;5.566;2023-05-16T04:12:05;20.60;58.30
58153;DHT22;43967;51.634;5.566;2023-05-16T04:17:26;20.60;58.20
58153;DHT22;43967;51.634;5.566;2023-05-16T04:22:47;20.60;58.20
58153;DHT22;43967;51.634;5.566;2023-05-16T04:28:09;20.60;58.20
58153;DHT22;43967;51.634;5.566;2023-05-16T04:33:30;20.60;58.20
58153;DHT22;43967;51.634;5.566;2023-05-16T04:38:51;20.60;58.20
58153;DHT22;43967;51.634;5.566;2023-05-16T04:44:13;20.60;58.20
58153;DHT22;43967;51.634;5.566;2023-05-16T04:49:35;20.60;58.20
58153;DHT22;43967;51.634;5.566;2023-05-16T04:54:56;20.60;58.20
58153;DHT22;43967;51.634;5.566;2023-05-16T05:00:18;20.60;58.20
58153;DHT22;43967;51.634;5.566;2023-05-16T05:05:39;20.50;58.20
58153;DHT22;43967;51.634;5.566;2023-05-16T05:11:00;20.60;58.20
58153;DHT22;43967;51.634;5.566;2023-05-16T05:16:22;20.50;58.20
58153;DHT22;43967;51.634;5.566;2023-05-16T05:21:43;20.50;57.80
58153;DHT22;43967;51.634;5.566;2023-05-16T05:27:04;20.50;57.90
58153;DHT22;43967;51.634;5.566;2023-05-16T05:32:26;20.40;57.10
58153;DHT22;43967;51.634;5.566;2023-05-16T05:37:47;20.30;57.20
58153;DHT22;43967;51.634;5.566;2023-05-16T05:43:08;20.30;57.20
58153;DHT22;43967;51.634;5.566;2023-05-16T05:48:29;20.30;57.00
58153;DHT22;43967;51.634;5.566;2023-05-16T05:53:51;20.30;57.40
58153;DHT22;43967;51.634;5.566;2023-05-16T05:59:13;20.40;57.60
58153;DHT22;43967;51.634;5.566;2023-05-16T06:04:34;20.40;57.70
58153;DHT22;43967;51.634;5.566;2023-05-16T06:15:27;20.40;57.90
58153;DHT22;43967;51.634;5.566;2023-05-16T06:20:48;20.40;57.90
58153;DHT22;43967;51.634;5.566;2023-05-16T06:26:13;20.40;57.60
58153;DHT22;43967;51.634;5.566;2023-05-16T06:31:34;20.40;57.60
58153;DHT22;43967;51.634;5.566;2023-05-16T06:36:55;20.40;57.60
58153;DHT22;43967;51.634;5.566;2023-05-16T06:42:17;20.50;57.50
58153;DHT22;43967;51.634;5.566;2023-05-16T06:47:38;20.50;57.50
58153;DHT22;43967;51.634;5.566;2023-05-16T06:53:00;20.60;57.60
58153;DHT22;43967;51.634;5.566;2023-05-16T06:58:21;20.70;57.50
58153;DHT22;43967;51.634;5.566;2023-05-16T07:03:42;20.80;57.40
58153;DHT22;43967;51.634;5.566;2023-05-16T07:09:03;21.00;57.30
58153;DHT22;43967;51.634;5.566;2023-05-16T07:14:25;21.10;57.00
58153;DHT22;43967;51.634;5.566;2023-05-16T07:19:49;21.20;56.80
58153;DHT22;43967;51.634;5.566;2023-05-16T07:25:10;21.40;56.50
58153;DHT22;43967;51.634;5.566;2023-05-16T07:30:31;21.50;56.20
58153;DHT22;43967;51.634;5.566;2023-05-16T07:35:54;21.70;56.00
58153;DHT22;43967;51.634;5.566;2023-05-16T07:41:15;21.80;55.70
58153;DHT22;43967;51.634;5.566;2023-05-16T07:46:37;22.00;55.40
58153;DHT22;43967;51.634;5.566;2023-05-16T07:51:58;22.20;54.80
58153;DHT22;43967;51.634;5.566;2023-05-16T07:57:19;22.30;54.50
58153;DHT22;43967;51.634;5.566;2023-05-16T08:02:41;22.10;54.80
58153;DHT22;43967;51.634;5.566;2023-05-16T08:08:02;21.90;55.10
58153;DHT22;43967;51.634;5.566;2023-05-16T08:13:23;21.80;55.50
58153;DHT22;43967;51.634;5.566;2023-05-16T08:18:44;21.70;55.50
58153;DHT22;43967;51.634;5.566;2023-05-16T08:24:06;21.60;55.60
58153;DHT22;43967;51.634;5.566;2023-05-16T08:29:27;21.60;55.70
58153;DHT22;43967;51.634;5.566;2023-05-16T08:34:49;21.50;55.80
58153;DHT22;43967;51.634;5.566;2023-05-16T08:40:13;21.50;55.80
58153;DHT22;43967;51.634;5.566;2023-05-16T08:45:37;21.40;55.90
58153;DHT22;43967;51.634;5.566;2023-05-16T08:51:01;21.40;56.00
58153;DHT22;43967;51.634;5.566;2023-05-16T08:56:23;21.40;56.00
58153;DHT22;43967;51.634;5.566;2023-05-16T09:01:45;21.40;56.10
58153;DHT22;43967;51.634;5.566;2023-05-16T09:07:07;21.30;56.10
58153;DHT22;43967;51.634;5.566;2023-05-16T09:12:28;21.30;56.10
58153;DHT22;43967;51.634;5.566;2023-05-16T09:17:49;21.30;56.20
58153;DHT22;43967;51.634;5.566;2023-05-16T09:23:10;21.20;56.20
58153;DHT22;43967;51.634;5.566;2023-05-16T09:28:32;21.30;56.30
58153;DHT22;43967;51.634;5.566;2023-05-16T09:33:57;21.20;56.10
58153;DHT22;43967;51.634;5.566;2023-05-16T09:39:18;21.20;56.20
58153;DHT22;43967;51.634;5.566;2023-05-16T09:44:41;21.20;56.10
58153;DHT22;43967;51.634;5.566;2023-05-16T09:50:06;21.20;56.10
58153;DHT22;43967;51.634;5.566;2023-05-16T09:55:29;21.20;56.30
58153;DHT22;43967;51.634;5.566;2023-05-16T10:00:50;21.10;56.50
58153;DHT22;43967;51.634;5.566;2023-05-16T10:06:15;21.10;56.80
58153;DHT22;43967;51.634;5.566;2023-05-16T10:12:25;21.10;57.10
58153;DHT22;43967;51.634;5.566;2023-05-16T10:17:20;21.10;57.30
58153;DHT22;43967;51.634;5.566;2023-05-16T10:22:43;21.10;57.60
58153;DHT22;43967;51.634;5.566;2023-05-16T10:28:04;21.10;57.70
58153;DHT22;43967;51.634;5.566;2023-05-16T10:33:26;21.10;57.90
58153;DHT22;43967;51.634;5.566;2023-05-16T10:38:48;21.10;58.00
58153;DHT22;43967;51.634;5.566;2023-05-16T10:44:14;21.20;58.10
58153;DHT22;43967;51.634;5.566;2023-05-16T10:49:39;21.10;58.20
58153;DHT22;43967;51.634;5.566;2023-05-16T10:55:02;21.10;58.20
58153;DHT22;43967;51.634;5.566;2023-05-16T11:00:23;21.00;58.30
58153;DHT22;43967;51.634;5.566;2023-05-16T11:05:52;21.10;58.40
58153;DHT22;43967;51.634;5.566;2023-05-16T11:11:39;21.10;58.40
58153;DHT22;43967;51.634;5.566;2023-05-16T11:17:11;21.10;58.50
58153;DHT22;43967;51.634;5.566;2023-05-16T11:22:37;21.10;58.70
58153;DHT22;43967;51.634;5.566;2023-05-16T11:27:58;21.10;58.70
58153;DHT22;43967;51.634;5.566;2023-05-16T11:33:20;21.10;58.70
58153;DHT22;43967;51.634;5.566;2023-05-16T11:38:42;21.10;58.60
58153;DHT22;43967;51.634;5.566;2023-05-16T11:44:09;21.10;58.60
58153;DHT22;43967;51.634;5.566;2023-05-16T11:49:31;21.20;58.60
58153;DHT22;43967;51.634;5.566;2023-05-16T11:54:52;21.20;58.60
58153;DHT22;43967;51.634;5.566;2023-05-16T12:00:15;21.20;58.60
58153;DHT22;43967;51.634;5.566;2023-05-16T12:05:36;21.20;58.60
58153;DHT22;43967;51.634;5.566;2023-05-16T12:10:58;21.20;58.70
58153;DHT22;43967;51.634;5.566;2023-05-16T12:16:22;21.20;58.60
58153;DHT22;43967;51.634;5.566;2023-05-16T12:21:43;21.10;58.10
58153;DHT22;43967;51.634;5.566;2023-05-16T12:27:07;21.10;57.30
58153;DHT22;43967;51.634;5.566;2023-05-16T12:32:28;21.20;56.70
58153;DHT22;43967;51.634;5.566;2023-05-16T12:37:49;21.20;56.60
58153;DHT22;43967;51.634;5.566;2023-05-16T12:43:15;21.20;56.50
58153;DHT22;43967;51.634;5.566;2023-05-16T12:48:39;21.20;56.40
58153;DHT22;43967;51.634;5.566;2023-05-16T12:54:09;21.10;56.30
58153;DHT22;43967;51.634;5.566;2023-05-16T12:59:31;21.10;53.20
58153;DHT22;43967;51.634;5.566;2023-05-16T13:04:52;21.20;51.30
58153;DHT22;43967;51.634;5.566;2023-05-16T13:10:15;21.10;50.60
58153;DHT22;43967;51.634;5.566;2023-05-16T13:15:37;21.10;48.80
58153;DHT22;43967;51.634;5.566;2023-05-16T13:21:00;21.10;47.60
58153;DHT22;43967;51.634;5.566;2023-05-16T13:26:22;21.20;47.10
58153;DHT22;43967;51.634;5.566;2023-05-16T13:31:43;21.10;47.00
58153;DHT22;43967;51.634;5.566;2023-05-16T13:37:04;21.10;47.10
58153;DHT22;43967;51.634;5.566;2023-05-16T13:42:25;21.00;47.00
58153;DHT22;43967;51.634;5.566;2023-05-16T13:47:47;21.00;47.00
58153;DHT22;43967;51.634;5.566;2023-05-16T13:53:08;21.00;47.10
58153;DHT22;43967;51.634;5.566;2023-05-16T13:58:32;21.00;46.80
58153;DHT22;43967;51.634;5.566;2023-05-16T14:03:53;21.00;46.50
58153;DHT22;43967;51.634;5.566;2023-05-16T14:09:14;21.00;46.30
58153;DHT22;43967;51.634;5.566;2023-05-16T14:14:36;20.90;46.40
58153;DHT22;43967;51.634;5.566;2023-05-16T14:19:57;20.90;46.30
58153;DHT22;43967;51.634;5.566;2023-05-16T14:25:19;20.80;47.00
58153;DHT22;43967;51.634;5.566;2023-05-16T14:30:42;20.80;47.40
58153;DHT22;43967;51.634;5.566;2023-05-16T14:36:04;20.80;47.10
58153;DHT22;43967;51.634;5.566;2023-05-16T14:41:25;20.80;47.30
58153;DHT22;43967;51.634;5.566;2023-05-16T14:46:47;20.70;48.40
58153;DHT22;43967;51.634;5.566;2023-05-16T14:52:08;20.80;49.10
58153;DHT22;43967;51.634;5.566;2023-05-16T14:57:29;20.80;48.40
58153;DHT22;43967;51.634;5.566;2023-05-16T15:02:51;20.80;49.80
58153;DHT22;43967;51.634;5.566;2023-05-16T15:08:12;20.80;50.60
58153;DHT22;43967;51.634;5.566;2023-05-16T15:13:34;20.80;51.20
58153;DHT22;43967;51.634;5.566;2023-05-16T15:18:55;20.80;52.50
58153;DHT22;43967;51.634;5.566;2023-05-16T15:24:16;20.80;53.40
58153;DHT22;43967;51.634;5.566;2023-05-16T15:29:38;20.90;53.70
58153;DHT22;43967;51.634;5.566;2023-05-16T15:34:59;20.90;53.90
58153;DHT22;43967;51.634;5.566;2023-05-16T15:40:21;20.90;54.90
58153;DHT22;43967;51.634;5.566;2023-05-16T15:45:43;20.90;55.60
58153;DHT22;43967;51.634;5.566;2023-05-16T15:51:04;20.90;56.40
58153;DHT22;43967;51.634;5.566;2023-05-16T15:56:26;20.90;57.20
58153;DHT22;43967;51.634;5.566;2023-05-16T16:01:47;20.90;57.60
58153;DHT22;43967;51.634;5.566;2023-05-16T16:07:09;20.90;57.80
58153;DHT22;43967;51.634;5.566;2023-05-16T16:12:30;21.00;58.10
58153;DHT22;43967;51.634;5.566;2023-05-16T16:17:52;21.00;58.50
58153;DHT22;43967;51.634;5.566;2023-05-16T16:23:13;21.00;58.70
58153;DHT22;43967;51.634;5.566;2023-05-16T16:28:34;21.00;58.60
58153;DHT22;43967;51.634;5.566;2023-05-16T16:33:56;21.00;58.70
58153;DHT22;43967;51.634;5.566;2023-05-16T16:39:17;21.00;58.70
58153;DHT22;43967;51.634;5.566;2023-05-16T16:44:38;21.00;58.90
58153;DHT22;43967;51.634;5.566;2023-05-16T16:50:00;21.00;58.90
58153;DHT22;43967;51.634;5.566;2023-05-16T16:55:21;21.00;58.80
58153;DHT22;43967;51.634;5.566;2023-05-16T17:00:43;21.10;59.00
58153;DHT22;43967;51.634;5.566;2023-05-16T17:06:05;21.10;59.40
58153;DHT22;43967;51.634;5.566;2023-05-16T17:11:26;21.10;59.60
58153;DHT22;43967;51.634;5.566;2023-05-16T17:16:47;21.10;59.70
58153;DHT22;43967;51.634;5.566;2023-05-16T17:22:09;21.10;59.60
58153;DHT22;43967;51.634;5.566;2023-05-16T17:27:30;21.10;59.40
58153;DHT22;43967;51.634;5.566;2023-05-16T17:32:52;21.10;59.40
58153;DHT22;43967;51.634;5.566;2023-05-16T17:38:13;21.10;59.30
58153;DHT22;43967;51.634;5.566;2023-05-16T17:43:34;21.10;59.10
58153;DHT22;43967;51.634;5.566;2023-05-16T17:48:55;21.10;58.90
58153;DHT22;43967;51.634;5.566;2023-05-16T17:54:18;21.10;58.70
58153;DHT22;43967;51.634;5.566;2023-05-16T17:59:39;21.10;58.50
58153;DHT22;43967;51.634;5.566;2023-05-16T18:05:00;21.10;58.20
58153;DHT22;43967;51.634;5.566;2023-05-16T18:10:22;21.10;58.00
58153;DHT22;43967;51.634;5.566;2023-05-16T18:15:43;21.10;57.90
58153;DHT22;43967;51.634;5.566;2023-05-16T18:21:05;21.10;57.70
58153;DHT22;43967;51.634;5.566;2023-05-16T18:26:26;21.10;57.60
58153;DHT22;43967;51.634;5.566;2023-05-16T18:31:47;21.10;57.60
58153;DHT22;43967;51.634;5.566;2023-05-16T18:37:09;21.10;57.60
58153;DHT22;43967;51.634;5.566;2023-05-16T18:42:30;21.10;57.40
58153;DHT22;43967;51.634;5.566;2023-05-16T18:47:51;21.10;57.40
58153;DHT22;43967;51.634;5.566;2023-05-16T18:53:13;21.10;57.30
58153;DHT22;43967;51.634;5.566;2023-05-16T18:58:34;21.10;57.30
58153;DHT22;43967;51.634;5.566;2023-05-16T19:03:55;21.10;57.30
58153;DHT22;43967;51.634;5.566;2023-05-16T19:09:17;21.10;57.40
58153;DHT22;43967;51.634;5.566;2023-05-16T19:14:38;21.10;57.40
58153;DHT22;43967;51.634;5.566;2023-05-16T19:19:59;21.10;57.60
58153;DHT22;43967;51.634;5.566;2023-05-16T19:25:21;21.10;57.80
58153;DHT22;43967;51.634;5.566;2023-05-16T19:30:42;21.10;58.00
58153;DHT22;43967;51.634;5.566;2023-05-16T19:36:13;21.10;58.00
58153;DHT22;43967;51.634;5.566;2023-05-16T19:41:34;21.10;58.30
58153;DHT22;43967;51.634;5.566;2023-05-16T19:46:56;21.10;58.40
58153;DHT22;43967;51.634;5.566;2023-05-16T19:52:18;21.10;58.40
58153;DHT22;43967;51.634;5.566;2023-05-16T19:57:39;21.00;58.40
58153;DHT22;43967;51.634;5.566;2023-05-16T20:03:01;21.10;58.50
58153;DHT22;43967;51.634;5.566;2023-05-16T20:08:22;21.00;58.30
58153;DHT22;43967;51.634;5.566;2023-05-16T20:13:43;21.00;58.40
58153;DHT22;43967;51.634;5.566;2023-05-16T20:19:04;21.00;58.50
58153;DHT22;43967;51.634;5.566;2023-05-16T20:24:26;21.00;58.20
58153;DHT22;43967;51.634;5.566;2023-05-16T20:29:47;21.00;58.10
58153;DHT22;43967;51.634;5.566;2023-05-16T20:35:09;21.00;58.00
58153;DHT22;43967;51.634;5.566;2023-05-16T20:40:30;21.00;57.90
58153;DHT22;43967;51.634;5.566;2023-05-16T20:45:51;21.00;57.80
58153;DHT22;43967;51.634;5.566;2023-05-16T20:51:13;21.00;57.70
58153;DHT22;43967;51.634;5.566;2023-05-16T20:56:34;21.00;57.70
58153;DHT22;43967;51.634;5.566;2023-05-16T21:01:55;21.00;57.60
58153;DHT22;43967;51.634;5.566;2023-05-16T21:07:16;21.00;57.60
58153;DHT22;43967;51.634;5.566;2023-05-16T21:12:38;20.90;57.40
58153;DHT22;43967;51.634;5.566;2023-05-16T21:17:59;20.90;57.40
58153;DHT22;43967;51.634;5.566;2023-05-16T21:23:20;20.90;57.40
58153;DHT22;43967;51.634;5.566;2023-05-16T21:28:42;20.90;57.30
58153;DHT22;43967;51.634;5.566;2023-05-16T21:34:03;20.90;57.30
58153;DHT22;43967;51.634;5.566;2023-05-16T21:39:24;20.90;57.20
58153;DHT22;43967;51.634;5.566;2023-05-16T21:44:46;20.80;57.20
58153;DHT22;43967;51.634;5.566;2023-05-16T21:50:07;20.80;57.20
58153;DHT22;43967;51.634;5.566;2023-05-16T21:55:29;20.90;57.20
58153;DHT22;43967;51.634;5.566;2023-05-16T22:00:50;20.90;57.10
58153;DHT22;43967;51.634;5.566;2023-05-16T22:06:12;20.80;57.50
58153;DHT22;43967;51.634;5.566;2023-05-16T22:11:33;20.80;57.10
58153;DHT22;43967;51.634;5.566;2023-05-16T22:16:54;20.80;57.00
58153;DHT22;43967;51.634;5.566;2023-05-16T22:22:15;20.80;57.10
58153;DHT22;43967;51.634;5.566;2023-05-16T22:27:37;20.80;57.00
58153;DHT22;43967;51.634;5.566;2023-05-16T22:32:58;20.80;57.00
58153;DHT22;43967;51.634;5.566;2023-05-16T22:38:20;20.80;57.00
58153;DHT22;43967;51.634;5.566;2023-05-16T22:43:41;20.80;57.00
58153;DHT22;43967;51.634;5.566;2023-05-16T22:49:02;20.80;57.00
58153;DHT22;43967;51.634;5.566;2023-05-16T22:54:23;20.70;56.90
58153;DHT22;43967;51.634;5.566;2023-05-16T22:59:45;20.70;56.90
58153;DHT22;43967;51.634;5.566;2023-05-16T23:05:06;20.70;56.80
58153;DHT22;43967;51.634;5.566;2023-05-16T23:10:28;20.70;56.90
58153;DHT22;43967;51.634;5.566;2023-05-16T23:15:49;20.70;56.90
58153;DHT22;43967;51.634;5.566;2023-05-16T23:21:11;20.70;56.80
58153;DHT22;43967;51.634;5.566;2023-05-16T23:26:32;20.70;56.80
58153;DHT22;43967;51.634;5.566;2023-05-16T23:31:53;20.60;56.80
58153;DHT22;43967;51.634;5.566;2023-05-16T23:37:14;20.60;56.80
58153;DHT22;43967;51.634;5.566;2023-05-16T23:42:36;20.60;56.80
58153;DHT22;43967;51.634;5.566;2023-05-16T23:47:57;20.60;56.80
58153;DHT22;43967;51.634;5.566;2023-05-16T23:53:18;20.60;56.80
58153;DHT22;43967;51.634;5.566;2023-05-16T23:58:40;20.60;56.80
